首页
METAR-TAF:

METAR-TAF

机场 :

卡昂, 法国

纬度: 49-11N, 经度: 000-27W, 海拔: 78米

当前天气观测

该预报发布于23分钟前的08:30 UTC
风速8节,风向南转西南
温度 16°C
湿度 88%
气压 1005 hPa
能见度10公里或以上
小雨

METAR: LFRK 220830Z AUTO 21008KT 9999 -RA ///TCU 16/14 Q1005 TEMPO 24015G25KT 3000 RA BECMG BKN025

时间: 10:53 (08:53 UTC)

预报

该预报发布于53分钟前的08:00 UTC
预报有效从22日的 09点(UTC)到 22日的 18点(UTC)
风速10节,风向南转西南
能見度: 5000
多云层高于2500英尺
短暂存在
从 22日的 09点(UTC)到 22日的 10点(UTC)
风速15节,风向西转西南,有时为25节阵风
能見度: 3000
多云层高于700英尺
散云层高于2000英尺, 塔状积云.
成为
从 22日的 09点(UTC)到 22日的 11点(UTC)
能见度10公里或以上
几率 40% :
短暂存在
从 22日的 13点(UTC)到 22日的 15点(UTC)
风速15节,风向西南,有时为25节阵风
能見度: 4000
多云层高于2500英尺, 塔状积云.
阵雨
短暂存在
从 22日的 15点(UTC)到 22日的 18点(UTC)
风速15节,风向西南,有时为25节阵风
能見度: 4000
多云层高于2500英尺, 塔状积云.
阵雨

TAF: LFRK 220800Z 2209/2218 21010KT 5000 RA BKN025 TEMPO 2209/2210 24015G25KT 3000 RA BKN007 SCT020TCU BECMG 2209/2211 9999 NSW PROB40 TEMPO 2213/2215 22015G25KT 4000 SHRA BKN025TCU TEMPO 2215/2218 22015G25KT 4000 SHRA BKN025TCU

超过4000个机场的气象观测和天气预报(METAR&TAF报告)。

可查询的气象台以黄色和红色小点在地图上表示。

将鼠标移到小点上方,可查看气象台名称。

然后点击查看天气观测和预报。

如需切换地图:点击带黑十字的绿色按钮放大地图;点击带横线的绿色按钮缩小地图;或者点击绿色箭头查看邻近地区的地图。


METAR-TAF: